Weather History for Angel Fire, NM

Change the Weather History Date:

Tuesday, May 28, 2013

  Actual Average (KSKX) Record (KSKX)
Temperature  
Mean Temperature 46 °F -  
Max Temperature 71 °F 75 °F 89 °F (2000)
Min Temperature 20 °F 38 °F 24 °F (2012)
Degree Days  
Heating Degree Days 20    
Moisture  
Dew Point 10 °F    
Average Humidity 24    
Maximum Humidity 60    
Minimum Humidity 7    
Precipitation  
Precipitation 0.00 in - - ()
Sea Level Pressure  
Sea Level Pressure 30.00 in    
Wind  
Wind Speed 6 mph (SW)    
Max Wind Speed 21 mph    
Max Gust Speed 32 mph    
Visibility 10 miles    
Events      
Averages and records for this station are not official NWS values.
T = Trace of Precipitation, MM = Missing Value Source: NWS Daily Summary

Daily Weather History Graph

Daily Weather History Graph

Search for Another Location

Airport:

Trip Planner

Search our weather history database for the weather conditions in past years. The results will help you decide how hot, cold, wet, or windy it might be!

Date:

Astronomy

May. 28, 2013 Rise Set
Actual Time 5:46 AM MDT 8:11 PM MDT
Civil Twilight 5:16 AM MDT 8:40 PM MDT
Nautical Twilight 4:39 AM MDT 9:17 PM MDT
Astronomical Twilight 3:59 AM MDT 9:58 PM MDT
Moon 11:40 PM MDT (5/28) 9:34 AM MDT (5/28)
Length of Visible Light 15h 24m
Length of Day
14h 25m
Waning Gibbous, 82% of the Moon is Illuminated
May 28
Waning Gibbous
May 31
Last Quarter
Jun 8
New
Jun 16
First Quarter
Jun 23
Full

Hourly Weather History & Observations

Time (MDT) Temp. Windchill Dew Point Humidity Pressure Visibility Wind Dir Wind Speed Gust Speed Precip Events Conditions
12:15 AM 50.9 °F - 8.6 °F 18% 30.10 in 10.0 mi South 10.4 mph - N/A   Clear
12:35 AM 51.3 °F - 8.6 °F 18% 30.10 in 10.0 mi SW 5.8 mph - N/A   Clear
12:55 AM 41.2 °F 39.2 °F 10.4 °F 28% 30.09 in 10.0 mi West 3.5 mph - N/A   Clear
1:15 AM 40.1 °F - 10.4 °F 30% 30.09 in 10.0 mi Calm Calm - N/A   Clear
1:35 AM 33.6 °F - 10.8 °F 39% 30.09 in 10.0 mi Calm Calm - N/A   Clear
1:55 AM 34.2 °F - 8.8 °F 35% 30.08 in 10.0 mi Calm Calm - N/A   Clear
2:15 AM 32.9 °F 27.5 °F 9.7 °F 38% 30.08 in 10.0 mi South 5.8 mph - N/A   Clear
2:35 AM 30.4 °F - 10.8 °F 44% 30.08 in 10.0 mi Calm Calm - N/A   Clear
2:55 AM 31.8 °F 27.3 °F 11.5 °F 43% 30.08 in 10.0 mi ESE 4.6 mph - N/A   Clear
3:15 AM 35.8 °F 31.9 °F 10.9 °F 36% 30.08 in 10.0 mi SW 4.6 mph - N/A   Clear
3:35 AM 29.8 °F - 10.8 °F 45% 30.08 in 10.0 mi Calm Calm - N/A   Clear
3:55 AM 29.3 °F - 10.4 °F 45% 30.09 in 10.0 mi Calm Calm - N/A   Clear
4:15 AM 28.2 °F - 10.6 °F 48% 30.08 in 10.0 mi Calm Calm - N/A   Clear
4:35 AM 25.3 °F - 10.4 °F 53% 30.09 in 10.0 mi Calm Calm - N/A   Clear
4:55 AM 25.2 °F - 10.2 °F 53% 30.09 in 10.0 mi Calm Calm - N/A   Clear
5:15 AM 23.5 °F - 9.3 °F 55% 30.09 in 10.0 mi Calm Calm - N/A   Clear
5:35 AM 24.4 °F - 9.5 °F 53% 30.09 in 10.0 mi Calm Calm - N/A   Clear
5:55 AM 20.8 °F - 8.1 °F 58% 30.09 in 10.0 mi Calm Calm - N/A   Clear
6:15 AM 22.1 °F - 10.0 °F 60% 30.09 in 10.0 mi Calm Calm - N/A   Clear
6:35 AM 24.1 °F - 10.2 °F 56% 30.09 in 10.0 mi Calm Calm - N/A   Clear
6:55 AM 30.9 °F 26.2 °F 11.8 °F 45% 30.08 in 10.0 mi SE 4.6 mph - N/A   Clear
7:15 AM 34.3 °F - 13.6 °F 43% 30.08 in 10.0 mi Calm Calm - N/A   Clear
7:35 AM 37.4 °F - 12.6 °F 36% 30.07 in 10.0 mi Calm Calm - N/A   Clear
7:55 AM 40.6 °F - 12.7 °F 32% 30.07 in 10.0 mi Calm Calm - N/A   Clear
8:15 AM 43.0 °F - 14.2 °F 31% 30.06 in 10.0 mi Calm Calm - N/A   Clear
8:35 AM 46.0 °F - 14.9 °F 29% 30.06 in 10.0 mi Calm Calm - N/A   Clear
8:55 AM 49.5 °F - 14.5 °F 25% 30.05 in 10.0 mi Calm Calm - N/A   Clear
9:15 AM 54.3 °F - 17.2 °F 23% 30.04 in 10.0 mi Calm Calm - N/A   Clear
9:35 AM 59.4 °F - 14.9 °F 18% 30.04 in 10.0 mi Calm Calm - N/A   Clear
9:55 AM 61.0 °F - 12.4 °F 15% 30.04 in 10.0 mi Calm Calm - N/A   Clear
10:15 AM 64.0 °F - 13.8 °F 14% 30.04 in 10.0 mi West 10.4 mph 23.0 mph N/A   Clear
10:35 AM 63.9 °F - 13.6 °F 14% 30.03 in 10.0 mi WSW 8.1 mph 19.6 mph N/A   Clear
10:55 AM 64.8 °F - 12.6 °F 13% 30.03 in 10.0 mi West 13.8 mph 18.4 mph N/A   Clear
11:15 AM 65.5 °F - 13.5 °F 13% 30.02 in 10.0 mi West 15.0 mph 24.2 mph N/A   Clear
11:35 AM 65.1 °F - 12.4 °F 13% 30.01 in 10.0 mi SW 9.2 mph 24.2 mph N/A   Clear
11:55 AM 66.6 °F - 11.5 °F 12% 30.00 in 10.0 mi SW 16.1 mph 21.9 mph N/A   Clear
12:15 PM 66.9 °F - 11.8 °F 12% 29.99 in 10.0 mi WSW 13.8 mph 26.5 mph N/A   Clear
12:35 PM 67.8 °F - 12.9 °F 12% 29.98 in 10.0 mi West 13.8 mph 25.3 mph N/A   Clear
12:55 PM 68.5 °F - 11.7 °F 11% 29.97 in 10.0 mi WSW 15.0 mph 26.5 mph N/A   Clear
1:15 PM 69.6 °F - 12.4 °F 11% 29.96 in 10.0 mi West 20.7 mph 27.6 mph N/A   Clear
1:35 PM 70.5 °F - 9.3 °F 9% 29.96 in 10.0 mi WSW 17.3 mph 26.5 mph N/A   Clear
1:55 PM 70.3 °F - 8.2 °F 9% 29.95 in 10.0 mi WSW 13.8 mph 25.3 mph N/A   Clear
2:15 PM 70.7 °F - 8.8 °F 9% 29.95 in 10.0 mi WSW 19.6 mph 32.2 mph N/A   Clear
2:35 PM 71.2 °F - 4.8 °F 7% 29.94 in 10.0 mi WSW 20.7 mph 28.8 mph N/A   Clear
2:55 PM 69.3 °F - 3.7 °F 8% 29.94 in 10.0 mi SW 20.7 mph 27.6 mph N/A   Clear
3:15 PM 70.3 °F - 5.0 °F 8% 29.94 in 10.0 mi WSW 19.6 mph 27.6 mph N/A   Clear
3:35 PM 68.2 °F - 5.7 °F 9% 29.94 in 10.0 mi WSW 18.4 mph 28.8 mph N/A   Clear
3:55 PM 68.2 °F - 5.2 °F 8% 29.93 in 10.0 mi WSW 15.0 mph 29.9 mph N/A   Clear
4:15 PM 69.4 °F - 6.8 °F 9% 29.93 in 10.0 mi WSW 9.2 mph 27.6 mph N/A   Clear
4:35 PM 69.8 °F - 6.1 °F 8% 29.92 in 10.0 mi SSW 13.8 mph 26.5 mph N/A   Clear
4:55 PM 68.7 °F - 6.8 °F 9% 29.92 in 10.0 mi SW 11.5 mph 27.6 mph N/A   Clear
5:15 PM 68.2 °F - 7.0 °F 9% 29.91 in 10.0 mi SW 17.3 mph 26.5 mph N/A   Clear
5:35 PM 68.5 °F - 7.3 °F 9% 29.91 in 10.0 mi SW 13.8 mph 25.3 mph N/A   Clear
5:55 PM 66.9 °F - 6.6 °F 9% 29.90 in 10.0 mi WSW 15.0 mph 21.9 mph N/A   Clear
6:15 PM 67.1 °F - 7.3 °F 10% 29.90 in 10.0 mi South 11.5 mph 21.9 mph N/A   Clear
6:35 PM 66.9 °F - 7.5 °F 10% 29.89 in 10.0 mi SW 17.3 mph 20.7 mph N/A   Clear
6:55 PM 65.8 °F - 7.3 °F 10% 29.89 in 10.0 mi SW 13.8 mph 18.4 mph N/A   Clear
7:15 PM 61.9 °F - 7.9 °F 12% 29.89 in 10.0 mi SSW 5.8 mph - N/A   Clear
7:35 PM 61.7 °F - 7.7 °F 12% 29.89 in 10.0 mi WSW 8.1 mph - N/A   Clear
7:55 PM 61.3 °F - 6.6 °F 11% 29.90 in 10.0 mi WSW 15.0 mph 21.9 mph N/A   Clear
8:15 PM 59.9 °F - 4.1 °F 11% 29.90 in 10.0 mi WSW 17.3 mph 24.2 mph N/A   Clear
8:35 PM 58.6 °F - 3.9 °F 11% 29.91 in 10.0 mi SW 5.8 mph 17.3 mph N/A   Clear
8:55 PM 57.0 °F - 4.1 °F 12% 29.91 in 10.0 mi SSW 6.9 mph - N/A   Clear
9:15 PM 55.8 °F - 4.8 °F 13% 29.90 in 10.0 mi South 3.5 mph - N/A   Clear
9:35 PM 48.0 °F - 9.0 °F 21% 29.92 in 10.0 mi West 3.5 mph - N/A   Clear
9:55 PM 49.5 °F - 9.5 °F 20% 29.92 in 10.0 mi Calm Calm - N/A   Clear
10:15 PM 49.5 °F - 9.3 °F 20% 29.92 in 10.0 mi Calm Calm - N/A   Clear
10:35 PM 46.8 °F - 11.3 °F 24% 29.93 in 10.0 mi Calm Calm - N/A   Clear
10:55 PM 43.7 °F - 12.2 °F 28% 29.93 in 10.0 mi Calm Calm - N/A   Clear
11:15 PM 42.8 °F - 12.0 °F 29% 29.93 in 10.0 mi Calm Calm - N/A   Clear
11:35 PM 44.4 °F 42.9 °F 12.2 °F 27% 29.92 in 10.0 mi SE 3.5 mph - N/A   Clear
11:55 PM 42.3 °F - 10.8 °F 28% 29.92 in 10.0 mi Calm Calm - N/A   Clear